Time,TemperatureF,DewpointF,PressureIn,WindDirection,WindDirectionDegrees,WindSpeedMPH,WindSpeedGustMPH,Humidity,HourlyPrecipIn,Conditions,Clouds,dailyrainin,SoftwareType,DateUTC
2013-05-12 00:10:00,41.2,36.1,30.24,East,82,0.0,0.0,82,0.00,,,0.00,Wunderground v.1.15,2013-05-12 05:10:00,
2013-05-12 00:20:00,41.5,36.4,30.23,East,82,0.0,0.0,82,0.00,,,0.00,Wunderground v.1.15,2013-05-12 05:20:00,
2013-05-12 00:30:00,41.1,36.3,30.23,East,82,0.0,0.0,83,0.00,,,0.00,Wunderground v.1.15,2013-05-12 05:30:00,
2013-05-12 00:40:00,40.5,36.3,30.23,East,82,0.0,0.0,85,0.00,,,0.00,Wunderground v.1.15,2013-05-12 05:40:00,
2013-05-12 00:50:00,40.2,36.1,30.23,East,82,0.0,0.0,85,0.00,,,0.00,Wunderground v.1.15,2013-05-12 05:50:00,
2013-05-12 01:00:00,40.1,36.0,30.22,East,82,0.0,0.0,85,0.00,,,0.00,Wunderground v.1.15,2013-05-12 06:00:00,
2013-05-12 01:10:00,38.9,35.1,30.23,East,82,0.0,0.0,86,0.00,,,0.00,Wunderground v.1.15,2013-05-12 06:10:00,
2013-05-12 01:20:00,38.4,34.9,30.23,East,82,0.0,0.0,87,0.00,,,0.00,Wunderground v.1.15,2013-05-12 06:20:00,
2013-05-12 01:30:00,38.7,34.9,30.23,East,79,0.0,0.0,86,0.00,,,0.00,Wunderground v.1.15,2013-05-12 06:30:00,
2013-05-12 01:40:00,38.7,34.9,30.23,East,79,0.0,0.0,86,0.00,,,0.00,Wunderground v.1.15,2013-05-12 06:40:00,
2013-05-12 01:50:00,38.7,34.9,30.22,East,79,0.0,0.0,86,0.00,,,0.00,Wunderground v.1.15,2013-05-12 06:50:00,
2013-05-12 02:00:00,39.0,35.5,30.22,ENE,77,0.0,0.0,87,0.00,,,0.00,Wunderground v.1.15,2013-05-12 07:00:00,
2013-05-12 02:10:00,40.4,35.3,30.22,ENE,63,1.0,1.0,82,0.00,,,0.00,Wunderground v.1.15,2013-05-12 07:10:00,
2013-05-12 02:20:00,40.4,35.3,30.22,ENE,63,0.0,0.0,82,0.00,,,0.00,Wunderground v.1.15,2013-05-12 07:20:00,
2013-05-12 02:30:00,40.3,35.2,30.22,ENE,63,0.0,0.0,82,0.00,,,0.00,Wunderground v.1.15,2013-05-12 07:30:00,
2013-05-12 02:40:00,40.1,35.0,30.22,ENE,64,0.0,0.0,82,0.00,,,0.00,Wunderground v.1.15,2013-05-12 07:40:00,
2013-05-12 02:50:00,39.0,34.6,30.23,ENE,63,0.0,0.0,84,0.00,,,0.00,Wunderground v.1.15,2013-05-12 07:50:00,
2013-05-12 03:00:00,38.1,34.3,30.23,ENE,64,0.0,0.0,86,0.00,,,0.00,Wunderground v.1.15,2013-05-12 08:00:00,
2013-05-12 03:10:00,37.9,34.4,30.23,ENE,63,0.0,0.0,87,0.00,,,0.00,Wunderground v.1.15,2013-05-12 08:10:00,
2013-05-12 03:20:00,38.4,34.6,30.23,NE,46,1.0,1.0,86,0.00,,,0.00,Wunderground v.1.15,2013-05-12 08:20:00,
2013-05-12 03:30:00,39.3,34.3,30.23,NE,47,2.0,2.0,82,0.00,,,0.00,Wunderground v.1.15,2013-05-12 08:30:00,
2013-05-12 03:40:00,39.7,34.3,30.23,NE,46,0.0,0.0,81,0.00,,,0.00,Wunderground v.1.15,2013-05-12 08:40:00,
2013-05-12 03:50:00,39.9,34.2,30.23,NE,47,0.0,0.0,80,0.00,,,0.00,Wunderground v.1.15,2013-05-12 08:50:00,
2013-05-12 04:00:00,40.0,34.0,30.23,NE,35,1.0,2.0,79,0.00,,,0.00,Wunderground v.1.15,2013-05-12 09:00:00,
2013-05-12 04:10:00,40.1,34.1,30.23,NNE,33,2.0,2.0,79,0.00,,,0.00,Wunderground v.1.15,2013-05-12 09:10:00,
2013-05-12 04:20:00,40.4,34.1,30.23,East,86,1.0,1.0,78,0.00,,,0.00,Wunderground v.1.15,2013-05-12 09:20:00,
2013-05-12 04:30:00,40.3,33.7,30.23,East,89,0.0,0.0,77,0.00,,,0.00,Wunderground v.1.15,2013-05-12 09:30:00,
2013-05-12 04:40:00,40.2,33.9,30.23,East,85,0.0,0.0,78,0.00,,,0.00,Wunderground v.1.15,2013-05-12 09:40:00,
2013-05-12 04:50:00,40.0,33.7,30.23,NE,38,1.0,1.0,78,0.00,,,0.00,Wunderground v.1.15,2013-05-12 09:50:00,
2013-05-12 05:00:00,40.2,33.6,30.23,NE,49,1.0,2.0,77,0.00,,,0.00,Wunderground v.1.15,2013-05-12 10:00:00,
2013-05-12 05:10:00,40.2,33.6,30.23,NNE,27,1.0,1.0,77,0.00,,,0.00,Wunderground v.1.15,2013-05-12 10:10:00,
2013-05-12 05:20:00,40.0,33.0,30.23,NNE,31,2.0,2.0,76,0.00,,,0.00,Wunderground v.1.15,2013-05-12 10:20:00,
2013-05-12 05:30:00,39.9,32.6,30.23,East,85,1.0,1.0,75,0.00,,,0.00,Wunderground v.1.15,2013-05-12 10:30:00,
2013-05-12 05:40:00,39.9,32.6,30.23,ESE,105,0.0,0.0,75,0.00,,,0.00,Wunderground v.1.15,2013-05-12 10:40:00,
2013-05-12 05:50:00,39.8,32.5,30.22,ESE,106,0.0,0.0,75,0.00,,,0.00,Wunderground v.1.15,2013-05-12 10:50:00,
2013-05-12 06:00:00,39.7,32.4,30.23,East,100,0.0,0.0,75,0.00,,,0.00,Wunderground v.1.15,2013-05-12 11:00:00,
2013-05-12 06:10:00,39.3,32.4,30.23,East,97,0.0,0.0,76,0.00,,,0.00,Wunderground v.1.15,2013-05-12 11:10:00,
2013-05-12 06:20:00,38.9,32.3,30.24,East,97,0.0,0.0,77,0.00,,,0.00,Wunderground v.1.15,2013-05-12 11:20:00,
2013-05-12 06:30:00,38.7,33.4,30.25,East,89,0.0,0.0,81,0.00,,,0.00,Wunderground v.1.15,2013-05-12 11:30:00,
2013-05-12 06:40:00,38.5,33.5,30.26,NE,34,0.0,2.0,82,0.00,,,0.00,Wunderground v.1.15,2013-05-12 11:40:00,
2013-05-12 06:50:00,39.5,33.8,30.25,ENE,77,1.0,1.0,80,0.00,,,0.00,Wunderground v.1.15,2013-05-12 11:50:00,
2013-05-12 07:00:00,40.7,34.7,30.24,SE,139,2.0,4.0,79,0.00,,,0.00,Wunderground v.1.15,2013-05-12 12:00:00,
2013-05-12 07:10:00,41.5,35.5,30.22,SE,142,5.0,5.0,79,0.00,,,0.00,Wunderground v.1.15,2013-05-12 12:10:00,
2013-05-12 07:20:00,42.8,36.7,30.22,SE,133,3.0,3.0,79,0.00,,,0.00,Wunderground v.1.15,2013-05-12 12:20:00,
2013-05-12 07:30:00,44.8,36.3,30.23,East,95,3.0,3.0,72,0.00,,,0.00,Wunderground v.1.15,2013-05-12 12:30:00,
2013-05-12 07:40:00,45.7,36.8,30.23,ESE,120,2.0,2.0,71,0.00,,,0.00,Wunderground v.1.15,2013-05-12 12:40:00,
2013-05-12 07:50:00,46.5,36.5,30.23,SE,128,3.0,7.0,68,0.00,,,0.00,Wunderground v.1.15,2013-05-12 12:50:00,
2013-05-12 08:00:00,47.3,36.9,30.22,SE,135,3.0,3.0,67,0.00,,,0.00,Wunderground v.1.15,2013-05-12 13:00:00,
2013-05-12 08:10:00,47.8,36.6,30.22,ESE,108,4.0,5.0,65,0.00,,,0.00,Wunderground v.1.15,2013-05-12 13:10:00,
2013-05-12 08:20:00,48.6,34.5,30.24,East,94,2.0,2.0,58,0.00,,,0.00,Wunderground v.1.15,2013-05-12 13:20:00,
2013-05-12 08:30:00,49.2,34.6,30.25,SE,146,3.0,3.0,57,0.00,,,0.00,Wunderground v.1.15,2013-05-12 13:30:00,
2013-05-12 08:40:00,49.4,33.9,30.26,ENE,63,3.0,3.0,55,0.00,,,0.00,Wunderground v.1.15,2013-05-12 13:40:00,
2013-05-12 08:50:00,49.3,32.4,30.26,ENE,77,3.0,5.0,52,0.00,,,0.00,Wunderground v.1.15,2013-05-12 13:50:00,
2013-05-12 09:00:00,49.2,31.8,30.22,SE,134,6.0,6.0,51,0.00,,,0.00,Wunderground v.1.15,2013-05-12 14:00:00,
2013-05-12 09:10:00,48.7,34.6,30.23,SE,129,7.0,7.0,58,0.00,,,0.00,Wunderground v.1.15,2013-05-12 14:10:00,
2013-05-12 09:20:00,48.6,34.9,30.25,ENE,73,3.0,6.0,59,0.00,,,0.00,Wunderground v.1.15,2013-05-12 14:20:00,
2013-05-12 09:30:00,48.6,35.3,30.23,ESE,122,5.0,9.0,60,0.00,,,0.00,Wunderground v.1.15,2013-05-12 14:30:00,
2013-05-12 09:40:00,49.2,37.1,30.22,ESE,113,6.0,6.0,63,0.00,,,0.00,Wunderground v.1.15,2013-05-12 14:40:00,
2013-05-12 09:50:00,51.3,36.6,30.25,ESE,115,4.0,4.0,57,0.00,,,0.00,Wunderground v.1.15,2013-05-12 14:50:00,
2013-05-12 10:00:00,50.5,36.3,30.19,SSE,148,7.0,11.0,58,0.00,,,0.01,Wunderground v.1.15,2013-05-12 15:00:00,
2013-05-12 10:10:00,49.9,39.4,30.19,ESE,115,5.0,5.0,67,0.09,,,0.02,Wunderground v.1.15,2013-05-12 15:10:00,
2013-05-12 10:20:00,50.6,38.5,30.19,SE,146,6.0,6.0,63,0.04,,,0.02,Wunderground v.1.15,2013-05-12 15:20:00,
2013-05-12 10:30:00,51.8,38.8,30.18,ESE,117,6.0,6.0,61,0.00,,,0.02,Wunderground v.1.15,2013-05-12 15:30:00,
2013-05-12 10:40:00,53.4,39.9,30.18,SE,139,6.0,6.0,60,0.00,,,0.02,Wunderground v.1.15,2013-05-12 15:40:00,
2013-05-12 10:50:00,54.7,39.8,30.18,SE,142,6.0,7.0,57,0.00,,,0.02,Wunderground v.1.15,2013-05-12 15:50:00,
2013-05-12 11:00:00,54.6,37.3,30.17,SSE,149,9.0,9.0,52,0.00,,,0.02,Wunderground v.1.15,2013-05-12 16:00:00,
2013-05-12 11:10:00,55.0,36.7,30.17,South,169,8.0,10.0,50,0.00,,,0.02,Wunderground v.1.15,2013-05-12 16:10:00,
2013-05-12 11:20:00,56.3,38.9,30.17,SE,127,8.0,8.0,52,0.00,,,0.02,Wunderground v.1.15,2013-05-12 16:20:00,
2013-05-12 11:30:00,57.7,37.0,30.17,SE,129,9.0,11.0,46,0.00,,,0.02,Wunderground v.1.15,2013-05-12 16:30:00,
2013-05-12 11:40:00,58.6,37.9,30.16,SSE,153,9.0,9.0,46,0.00,,,0.02,Wunderground v.1.15,2013-05-12 16:40:00,
2013-05-12 11:50:00,59.2,36.7,30.16,SSE,156,10.0,14.0,43,0.00,,,0.02,Wunderground v.1.15,2013-05-12 16:50:00,
2013-05-12 12:00:00,60.1,36.9,30.16,SSE,160,11.0,11.0,42,0.00,,,0.02,Wunderground v.1.15,2013-05-12 17:00:00,
2013-05-12 12:10:00,61.4,38.7,30.16,SE,131,9.0,10.0,43,0.00,,,0.02,Wunderground v.1.15,2013-05-12 17:10:00,
2013-05-12 12:20:00,61.6,40.6,30.16,SE,131,9.0,9.0,46,0.00,,,0.02,Wunderground v.1.15,2013-05-12 17:20:00,
2013-05-12 12:30:00,61.5,36.9,30.16,SE,126,10.0,12.0,40,0.00,,,0.02,Wunderground v.1.15,2013-05-12 17:30:00,
2013-05-12 12:40:00,61.9,37.9,30.16,SSE,148,9.0,10.0,41,0.00,,,0.02,Wunderground v.1.15,2013-05-12 17:40:00,
2013-05-12 12:50:00,62.0,39.8,30.15,East,93,9.0,9.0,44,0.00,,,0.02,Wunderground v.1.15,2013-05-12 17:50:00,
2013-05-12 13:00:00,62.5,40.3,30.14,SE,141,10.0,10.0,44,0.00,,,0.02,Wunderground v.1.15,2013-05-12 18:00:00,
2013-05-12 13:10:00,63.0,40.7,30.14,SSE,160,9.0,9.0,44,0.00,,,0.02,Wunderground v.1.15,2013-05-12 18:10:00,
2013-05-12 13:20:00,64.0,41.6,30.13,SE,142,8.0,9.0,44,0.00,,,0.02,Wunderground v.1.15,2013-05-12 18:20:00,
2013-05-12 13:30:00,64.7,42.3,30.13,SSW,201,10.0,10.0,44,0.00,,,0.02,Wunderground v.1.15,2013-05-12 18:30:00,
2013-05-12 13:40:00,65.6,42.5,30.13,SE,142,9.0,9.0,43,0.00,,,0.02,Wunderground v.1.15,2013-05-12 18:40:00,
2013-05-12 13:50:00,66.3,43.1,30.12,SE,125,8.0,10.0,43,0.00,,,0.02,Wunderground v.1.15,2013-05-12 18:50:00,
2013-05-12 14:00:00,66.8,41.7,30.11,South,177,10.0,10.0,40,0.00,,,0.02,Wunderground v.1.15,2013-05-12 19:00:00,
2013-05-12 14:10:00,67.0,40.5,30.11,SSE,158,10.0,10.0,38,0.00,,,0.02,Wunderground v.1.15,2013-05-12 19:10:00,
2013-05-12 14:20:00,67.5,41.7,30.11,South,172,8.0,8.0,39,0.00,,,0.02,Wunderground v.1.15,2013-05-12 19:20:00,
2013-05-12 14:30:00,67.9,42.7,30.11,SSE,158,9.0,13.0,40,0.00,,,0.02,Wunderground v.1.15,2013-05-12 19:30:00,
2013-05-12 14:40:00,68.4,43.1,30.11,SE,146,8.0,9.0,40,0.00,,,0.02,Wunderground v.1.15,2013-05-12 19:40:00,
2013-05-12 14:50:00,68.6,43.3,30.10,SE,131,9.0,9.0,40,0.00,,,0.02,Wunderground v.1.15,2013-05-12 19:50:00,
2013-05-12 15:00:00,69.0,43.7,30.10,SE,142,7.0,7.0,40,0.00,,,0.02,Wunderground v.1.15,2013-05-12 20:00:00,
2013-05-12 15:10:00,69.7,44.9,30.10,ESE,119,8.0,8.0,41,0.00,,,0.02,Wunderground v.1.15,2013-05-12 20:10:00,
2013-05-12 15:20:00,69.9,44.5,30.10,SE,138,8.0,8.0,40,0.00,,,0.02,Wunderground v.1.15,2013-05-12 20:20:00,
2013-05-12 15:30:00,70.1,44.6,30.09,SSE,155,7.0,7.0,40,0.00,,,0.02,Wunderground v.1.15,2013-05-12 20:30:00,
2013-05-12 15:40:00,70.5,44.3,30.08,East,96,7.0,7.0,39,0.00,,,0.02,Wunderground v.1.15,2013-05-12 20:40:00,
2013-05-12 15:50:00,70.5,44.3,30.08,ESE,102,7.0,7.0,39,0.00,,,0.02,Wunderground v.1.15,2013-05-12 20:50:00,
2013-05-12 16:00:00,70.8,44.6,30.08,SE,133,7.0,7.0,39,0.00,,,0.02,Wunderground v.1.15,2013-05-12 21:00:00,
2013-05-12 16:10:00,71.3,47.0,30.08,SSE,151,6.0,8.0,42,0.00,,,0.02,Wunderground v.1.15,2013-05-12 21:10:00,
2013-05-12 16:20:00,71.5,46.6,30.07,SSE,158,6.0,8.0,41,0.00,,,0.02,Wunderground v.1.15,2013-05-12 21:20:00,
2013-05-12 16:30:00,71.9,46.9,30.07,SE,146,5.0,6.0,41,0.00,,,0.02,Wunderground v.1.15,2013-05-12 21:30:00,
2013-05-12 16:40:00,71.9,45.6,30.07,ENE,72,5.0,7.0,39,0.00,,,0.02,Wunderground v.1.15,2013-05-12 21:40:00,
2013-05-12 16:50:00,72.3,46.6,30.06,SE,135,6.0,10.0,40,0.00,,,0.02,Wunderground v.1.15,2013-05-12 21:50:00,
2013-05-12 17:00:00,72.0,46.3,30.06,SSE,167,6.0,6.0,40,0.00,,,0.02,Wunderground v.1.15,2013-05-12 22:00:00,
2013-05-12 17:10:00,72.0,47.6,30.06,ESE,108,5.0,5.0,42,0.00,,,0.02,Wunderground v.1.15,2013-05-12 22:10:00,
2013-05-12 17:20:00,71.8,46.8,30.06,SE,136,6.0,6.0,41,0.00,,,0.02,Wunderground v.1.15,2013-05-12 22:20:00,
2013-05-12 17:30:00,71.9,46.9,30.06,SE,138,5.0,7.0,41,0.00,,,0.02,Wunderground v.1.15,2013-05-12 22:30:00,
2013-05-12 17:40:00,72.2,48.5,30.06,SSE,152,6.0,10.0,43,0.00,,,0.02,Wunderground v.1.15,2013-05-12 22:40:00,
2013-05-12 17:50:00,71.9,47.6,30.05,SSE,152,7.0,8.0,42,0.00,,,0.02,Wunderground v.1.15,2013-05-12 22:50:00,
2013-05-12 18:00:00,72.0,47.6,30.05,SE,143,5.0,5.0,42,0.00,,,0.02,Wunderground v.1.15,2013-05-12 23:00:00,
2013-05-12 18:10:00,72.0,48.3,30.05,East,80,5.0,5.0,43,0.00,,,0.02,Wunderground v.1.15,2013-05-12 23:10:00,
2013-05-12 18:20:00,71.7,47.4,30.04,SE,143,5.0,5.0,42,0.00,,,0.02,Wunderground v.1.15,2013-05-12 23:20:00,
2013-05-12 18:30:00,71.6,47.9,30.04,ESE,105,5.0,5.0,43,0.00,,,0.02,Wunderground v.1.15,2013-05-12 23:30:00,
2013-05-12 18:40:00,71.4,47.7,30.04,ESE,102,5.0,6.0,43,0.00,,,0.02,Wunderground v.1.15,2013-05-12 23:40:00,
2013-05-12 18:50:00,70.7,47.7,30.04,SSE,149,5.0,5.0,44,0.00,,,0.02,Wunderground v.1.15,2013-05-12 23:50:00,
2013-05-12 19:00:00,71.0,48.6,30.04,SE,145,4.0,4.0,45,0.00,,,0.02,Wunderground v.1.15,2013-05-13 00:00:00,
2013-05-12 19:10:00,70.6,47.6,30.03,ESE,121,4.0,4.0,44,0.00,,,0.02,Wunderground v.1.15,2013-05-13 00:10:00,
2013-05-12 19:20:00,70.5,48.1,30.03,ESE,118,4.0,4.0,45,0.00,,,0.02,Wunderground v.1.15,2013-05-13 00:20:00,
2013-05-12 19:30:00,69.9,47.6,30.03,SE,146,5.0,5.0,45,0.00,,,0.02,Wunderground v.1.15,2013-05-13 00:30:00,
2013-05-12 19:40:00,69.7,48.0,30.03,ESE,110,3.0,3.0,46,0.00,,,0.02,Wunderground v.1.15,2013-05-13 00:40:00,
2013-05-12 19:50:00,69.6,49.6,30.04,ESE,102,2.0,2.0,49,0.00,,,0.02,Wunderground v.1.15,2013-05-13 00:50:00,
2013-05-12 20:00:00,68.5,49.1,30.04,ESE,106,3.0,3.0,50,0.00,,,0.02,Wunderground v.1.15,2013-05-13 01:00:00,
2013-05-12 20:10:00,67.4,48.6,30.04,ENE,78,3.0,3.0,51,0.00,,,0.02,Wunderground v.1.15,2013-05-13 01:10:00,
2013-05-12 20:20:00,66.5,48.8,30.05,ESE,123,2.0,2.0,53,0.00,,,0.02,Wunderground v.1.15,2013-05-13 01:20:00,
2013-05-12 20:30:00,64.9,49.8,30.05,East,96,1.0,1.0,58,0.00,,,0.02,Wunderground v.1.15,2013-05-13 01:30:00,
2013-05-12 20:40:00,63.2,49.1,30.04,ESE,112,2.0,2.0,60,0.00,,,0.02,Wunderground v.1.15,2013-05-13 01:40:00,
2013-05-12 20:50:00,62.1,49.4,30.05,East,89,1.0,2.0,63,0.00,,,0.02,Wunderground v.1.15,2013-05-13 01:50:00,
2013-05-12 21:00:00,61.2,49.7,30.05,ESE,120,1.0,1.0,66,0.00,,,0.02,Wunderground v.1.15,2013-05-13 02:00:00,
2013-05-12 21:10:00,60.6,50.0,30.05,East,97,1.0,1.0,68,0.00,,,0.02,Wunderground v.1.15,2013-05-13 02:10:00,
2013-05-12 21:20:00,59.9,49.7,30.05,ESE,123,1.0,2.0,69,0.00,,,0.02,Wunderground v.1.15,2013-05-13 02:20:00,
2013-05-12 21:30:00,59.6,49.0,30.04,ESE,103,3.0,3.0,68,0.00,,,0.02,Wunderground v.1.15,2013-05-13 02:30:00,
2013-05-12 21:40:00,59.5,48.9,30.05,ESE,105,3.0,3.0,68,0.00,,,0.02,Wunderground v.1.15,2013-05-13 02:40:00,
2013-05-12 21:50:00,59.0,48.8,30.05,SE,132,3.0,3.0,69,0.00,,,0.02,Wunderground v.1.15,2013-05-13 02:50:00,
2013-05-12 22:00:00,58.3,48.2,30.05,East,89,2.0,2.0,69,0.00,,,0.02,Wunderground v.1.15,2013-05-13 03:00:00,
2013-05-12 22:10:00,57.7,48.4,30.05,ENE,72,3.0,3.0,71,0.00,,,0.02,Wunderground v.1.15,2013-05-13 03:10:00,
2013-05-12 22:20:00,57.3,48.3,30.06,ESE,108,3.0,3.0,72,0.00,,,0.02,Wunderground v.1.15,2013-05-13 03:20:00,
2013-05-12 22:30:00,56.8,48.2,30.05,ENE,71,3.0,3.0,73,0.00,,,0.02,Wunderground v.1.15,2013-05-13 03:30:00,
2013-05-12 22:40:00,56.2,48.0,30.06,SE,129,3.0,3.0,74,0.00,,,0.02,Wunderground v.1.15,2013-05-13 03:40:00,
2013-05-12 22:50:00,55.6,47.8,30.05,SE,124,3.0,6.0,75,0.00,,,0.02,Wunderground v.1.15,2013-05-13 03:50:00,
2013-05-12 23:00:00,55.1,47.3,30.05,ESE,115,3.0,3.0,75,0.00,,,0.02,Wunderground v.1.15,2013-05-13 04:00:00,
2013-05-12 23:10:00,54.4,47.0,30.05,ENE,73,2.0,5.0,76,0.00,,,0.02,Wunderground v.1.15,2013-05-13 04:10:00,
2013-05-12 23:20:00,53.9,46.9,30.05,ESE,103,2.0,2.0,77,0.00,,,0.02,Wunderground v.1.15,2013-05-13 04:20:00,
2013-05-12 23:30:00,53.5,46.8,30.05,East,91,0.0,0.0,78,0.00,,,0.02,Wunderground v.1.15,2013-05-13 04:30:00,
2013-05-12 23:40:00,53.0,46.7,30.05,NE,39,1.0,1.0,79,0.00,,,0.02,Wunderground v.1.15,2013-05-13 04:40:00,
2013-05-12 23:50:00,52.7,46.7,30.06,East,82,0.0,0.0,80,0.00,,,0.02,Wunderground v.1.15,2013-05-13 04:50:00,